createdAt,value
2019-04-28T00:00:11.448Z,4.3417
2019-04-28T00:01:16.229Z,4.3317
2019-04-28T00:02:22.488Z,4.3317
2019-04-28T00:03:27.929Z,4.3216
2019-04-28T00:04:33.794Z,4.3015
2019-04-28T00:05:39.072Z,4.3015
2019-04-28T00:06:44.208Z,4.3015
2019-04-28T00:07:50.573Z,4.2914
2019-04-28T00:08:57.851Z,4.2914
2019-04-28T00:10:02.253Z,4.2712
2019-04-28T00:11:07.229Z,4.2712
2019-04-28T00:12:11.812Z,4.2612
2019-04-28T00:13:16.802Z,4.2712
2019-04-28T00:14:22.064Z,4.2712
2019-04-28T00:15:28.081Z,4.3015
2019-04-28T00:16:34.147Z,4.3015
2019-04-28T00:17:39.854Z,4.3015
2019-04-28T00:18:43.204Z,4.3015
2019-04-28T00:19:48.925Z,4.2914
2019-04-28T00:20:54.857Z,4.3015
2019-04-28T00:22:01.040Z,4.3015
2019-04-28T00:23:07.126Z,4.2914
2019-04-28T00:24:12.892Z,4.2612
2019-04-28T00:25:18.096Z,4.2612
2019-04-28T00:26:23.971Z,4.2310
2019-04-28T00:27:29.220Z,4.2209
2019-04-28T00:28:35.006Z,4.2007
2019-04-28T00:29:43.554Z,4.1806
2019-04-28T00:30:51.724Z,4.1403
2019-04-28T00:31:56.823Z,4.1403
2019-04-28T00:33:01.805Z,4.1202
2019-04-28T00:34:06.896Z,4.1101
2019-04-28T00:35:12.863Z,4.1101
2019-04-28T00:36:18.310Z,4.0900
2019-04-28T00:37:23.857Z,4.0799
2019-04-28T00:38:28.939Z,4.0799
2019-04-28T00:39:34.802Z,4.0598
2019-04-28T00:40:41.366Z,4.0497
2019-04-28T00:41:46.256Z,4.0195
2019-04-28T00:42:51.270Z,3.9792
2019-04-28T00:43:57.100Z,3.9691
2019-04-28T00:45:02.817Z,3.9590
2019-04-28T00:46:08.869Z,3.9389
2019-04-28T00:47:13.931Z,3.9691
2019-04-28T00:48:20.929Z,3.9590
2019-04-28T00:49:27.344Z,3.9590
2019-04-28T00:50:33.200Z,3.9691
2019-04-28T00:51:38.311Z,3.9590
2019-04-28T00:52:43.928Z,3.9691
2019-04-28T00:53:50.904Z,3.9691
2019-04-28T00:54:56.892Z,3.9792
2019-04-28T00:56:02.838Z,3.9993
2019-04-28T00:57:07.866Z,3.9993
2019-04-28T00:58:13.967Z,3.9993
2019-04-28T00:59:21.574Z,3.9993
2019-04-28T01:00:26.866Z,3.9993
2019-04-28T01:01:31.887Z,4.0195
2019-04-28T01:02:37.834Z,4.0396
2019-04-28T01:03:42.848Z,4.0396
2019-04-28T01:04:47.244Z,4.0396
2019-04-28T01:05:52.836Z,4.0497
2019-04-28T01:06:57.239Z,4.0598
2019-04-28T01:08:02.209Z,4.0598
2019-04-28T01:09:07.808Z,4.0598
2019-04-28T01:10:12.839Z,4.0497
2019-04-28T01:11:17.843Z,4.0598
2019-04-28T01:12:22.805Z,4.0598
2019-04-28T01:13:27.844Z,4.0598
2019-04-28T01:14:32.884Z,4.0497
2019-04-28T01:15:39.677Z,4.0396
2019-04-28T01:16:44.255Z,4.0396
2019-04-28T01:17:49.862Z,4.0396
2019-04-28T01:18:55.088Z,4.0195
2019-04-28T01:20:00.859Z,3.9993
2019-04-28T01:21:05.853Z,3.9993
2019-04-28T01:22:11.259Z,3.9792
2019-04-28T01:23:16.927Z,3.9993
2019-04-28T01:24:22.855Z,3.9792
2019-04-28T01:25:29.844Z,3.9993
2019-04-28T01:26:37.234Z,3.9691
2019-04-28T01:27:42.197Z,3.9691
2019-04-28T01:28:47.217Z,3.9792
2019-04-28T01:30:05.096Z,3.9792
2019-04-28T01:31:02.230Z,3.9993
2019-04-28T01:32:07.848Z,3.9993
2019-04-28T01:33:12.949Z,4.0195
2019-04-28T01:34:20.355Z,3.9993
2019-04-28T01:35:25.886Z,3.9792
2019-04-28T01:36:30.846Z,3.9792
2019-04-28T01:37:36.101Z,3.9792
2019-04-28T01:38:41.867Z,3.9590
2019-04-28T01:39:46.220Z,3.9590
2019-04-28T01:40:51.918Z,3.9288
2019-04-28T01:41:59.423Z,3.9087
2019-04-28T01:43:04.816Z,3.8785
2019-04-28T01:44:10.314Z,3.8684
2019-04-28T01:45:15.225Z,3.8684
2019-04-28T01:46:20.214Z,3.8382
2019-04-28T01:47:24.767Z,3.8382
2019-04-28T01:48:29.619Z,3.8382
2019-04-28T01:49:36.857Z,3.7979
2019-04-28T01:50:41.823Z,3.7878
2019-04-28T01:51:46.853Z,3.7778
2019-04-28T01:52:51.990Z,3.7476
2019-04-28T01:53:57.910Z,3.7476
2019-04-28T01:55:03.872Z,3.7476
2019-04-28T01:56:10.535Z,3.7274
2019-04-28T01:57:16.344Z,3.7476
2019-04-28T01:58:21.379Z,3.7576
2019-04-28T01:59:27.002Z,3.7576
2019-04-28T02:00:32.893Z,3.7778
2019-04-28T02:01:39.996Z,3.7576
2019-04-28T02:02:46.259Z,3.7476
2019-04-28T02:03:51.219Z,3.7274
2019-04-28T02:04:56.999Z,3.7173
2019-04-28T02:06:02.974Z,3.6771
2019-04-28T02:07:10.876Z,3.6569
2019-04-28T02:08:16.798Z,3.6469
2019-04-28T02:09:21.806Z,3.6066
2019-04-28T02:10:26.333Z,3.5663
2019-04-28T02:11:31.516Z,3.5461
2019-04-28T02:12:36.836Z,3.5159
2019-04-28T02:13:42.137Z,3.4958
2019-04-28T02:14:47.199Z,3.4756
2019-04-28T02:15:52.894Z,3.4656
2019-04-28T02:16:58.267Z,3.4152
2019-04-28T02:18:04.123Z,3.3850
2019-04-28T02:19:10.768Z,3.3850
2019-04-28T02:20:15.208Z,3.3649
2019-04-28T02:21:20.955Z,3.3246
2019-04-28T02:22:26.237Z,3.2843
2019-04-28T02:23:31.794Z,3.2843
2019-04-28T02:24:36.912Z,3.2440
2019-04-28T02:25:42.862Z,3.2138
2019-04-28T02:26:47.807Z,3.2138
2019-04-28T02:27:52.841Z,3.2037
2019-04-28T02:29:00.241Z,3.1836
2019-04-28T02:30:04.920Z,3.2037
2019-04-28T02:31:11.589Z,3.2037
2019-04-28T02:32:16.221Z,3.2138
2019-04-28T02:33:21.921Z,3.2339
2019-04-28T02:34:30.945Z,3.2642
2019-04-28T02:35:36.283Z,3.3145
2019-04-28T02:36:41.902Z,3.3850
2019-04-28T02:37:50.030Z,3.4152
2019-04-28T02:38:55.765Z,3.4756
2019-04-28T02:40:03.321Z,3.5059
2019-04-28T02:41:11.123Z,3.5461
2019-04-28T02:42:17.420Z,3.5764
2019-04-28T02:43:21.792Z,3.6166
2019-04-28T02:44:31.077Z,3.6871
2019-04-28T02:45:37.871Z,3.7274
2019-04-28T02:46:43.874Z,3.7576
2019-04-28T02:47:48.827Z,3.7878
2019-04-28T02:48:54.227Z,3.7878
2019-04-28T02:50:00.962Z,3.7979
2019-04-28T02:51:07.000Z,3.8281
2019-04-28T02:52:12.883Z,3.8281
2019-04-28T02:53:21.070Z,3.8382
2019-04-28T02:54:26.901Z,3.8583
2019-04-28T02:55:33.106Z,3.8583
2019-04-28T02:56:43.406Z,3.8684
2019-04-28T02:57:48.223Z,3.8785
2019-04-28T02:58:52.881Z,3.8986
2019-04-28T02:59:57.321Z,3.9087
2019-04-28T03:01:15.226Z,3.9389
2019-04-28T03:02:12.818Z,3.9691
2019-04-28T03:03:17.823Z,3.9993
2019-04-28T03:04:22.262Z,4.0195
2019-04-28T03:05:27.793Z,4.0396
2019-04-28T03:06:32.214Z,4.0598
2019-04-28T03:07:37.899Z,4.0900
2019-04-28T03:08:43.931Z,4.1101
2019-04-28T03:09:51.990Z,4.1202
2019-04-28T03:11:00.630Z,4.1403
2019-04-28T03:12:07.005Z,4.1202
2019-04-28T03:13:13.387Z,4.1403
2019-04-28T03:14:20.852Z,4.1403
2019-04-28T03:15:26.221Z,4.1202
2019-04-28T03:16:31.804Z,4.1101
2019-04-28T03:17:36.857Z,4.0900
2019-04-28T03:18:41.783Z,4.0799
2019-04-28T03:19:46.837Z,4.0799
2019-04-28T03:20:52.071Z,4.0799
2019-04-28T03:21:57.787Z,4.0799
2019-04-28T03:23:02.909Z,4.0799
2019-04-28T03:24:11.002Z,4.0799
2019-04-28T03:25:20.401Z,4.0799
2019-04-28T03:26:25.885Z,4.0799
2019-04-28T03:27:31.387Z,4.0799
2019-04-28T03:28:36.930Z,4.0799
2019-04-28T03:29:42.938Z,4.0799
2019-04-28T03:30:48.230Z,4.0900
2019-04-28T03:32:15.692Z,4.0799
2019-04-28T03:33:11.848Z,4.1101
2019-04-28T03:34:15.252Z,4.1202
2019-04-28T03:35:22.919Z,4.1202
2019-04-28T03:36:32.955Z,4.1403
2019-04-28T03:37:41.137Z,4.1403
2019-04-28T03:38:46.900Z,4.1403
2019-04-28T03:39:52.230Z,4.1504
2019-04-28T03:40:57.942Z,4.1403
2019-04-28T03:42:03.905Z,4.1504
2019-04-28T03:43:10.940Z,4.1504
2019-04-28T03:44:20.784Z,4.1504
2019-04-28T03:45:26.905Z,4.1504
2019-04-28T03:46:32.867Z,4.1806
2019-04-28T03:47:36.929Z,4.1605
2019-04-28T03:48:42.359Z,4.2209
2019-04-28T03:49:46.217Z,4.2209
2019-04-28T03:50:51.885Z,4.2410
2019-04-28T03:51:56.326Z,4.2612
2019-04-28T03:53:01.887Z,4.2712
2019-04-28T03:54:06.884Z,4.3216
2019-04-28T03:55:11.865Z,4.3317
2019-04-28T03:56:17.916Z,4.3619
2019-04-28T03:57:23.894Z,4.3719
2019-04-28T03:58:31.054Z,4.4022
2019-04-28T03:59:36.872Z,4.4022
2019-04-28T04:00:41.852Z,4.4223
2019-04-28T04:01:56.725Z,4.4223
2019-04-28T04:03:00.596Z,4.4424
2019-04-28T04:04:07.134Z,4.4223
2019-04-28T04:05:12.933Z,4.4424
2019-04-28T04:06:18.746Z,4.4525
2019-04-28T04:07:23.220Z,4.4525
2019-04-28T04:08:30.954Z,4.4525
2019-04-28T04:09:36.836Z,4.4525
2019-04-28T04:10:40.487Z,4.4827
2019-04-28T04:11:45.967Z,4.5029
2019-04-28T04:12:51.962Z,4.5129
2019-04-28T04:13:57.912Z,4.5129
2019-04-28T04:15:04.150Z,4.5432
2019-04-28T04:16:10.375Z,4.5432
2019-04-28T04:17:15.807Z,4.5532
2019-04-28T04:18:21.226Z,4.5834
2019-04-28T04:19:26.231Z,4.5532
2019-04-28T04:20:31.883Z,4.5532
2019-04-28T04:21:40.483Z,4.5532
2019-04-28T04:22:45.865Z,4.5834
2019-04-28T04:23:51.111Z,4.5834
2019-04-28T04:24:56.235Z,4.5834
2019-04-28T04:26:02.251Z,4.5834
2019-04-28T04:27:10.543Z,4.5935
2019-04-28T04:28:15.837Z,4.5935
2019-04-28T04:29:21.714Z,4.5834
2019-04-28T04:30:26.902Z,4.5935
2019-04-28T04:31:32.010Z,4.6036
2019-04-28T04:32:40.893Z,4.6036
2019-04-28T04:33:46.854Z,4.6036
2019-04-28T04:34:51.904Z,4.6237
2019-04-28T04:35:57.939Z,4.6237
2019-04-28T04:37:03.201Z,4.6036
2019-04-28T04:38:10.463Z,4.6237
2019-04-28T04:39:16.079Z,4.6036
2019-04-28T04:40:21.272Z,4.6237
2019-04-28T04:41:27.002Z,4.6338
2019-04-28T04:42:32.908Z,4.6539
2019-04-28T04:43:41.182Z,4.6640
2019-04-28T04:44:46.230Z,4.6942
2019-04-28T04:45:51.208Z,4.6942
2019-04-28T04:46:56.863Z,4.7043
2019-04-28T04:48:01.429Z,4.6942
2019-04-28T04:49:06.817Z,4.6741
2019-04-28T04:50:13.241Z,4.6741
2019-04-28T04:51:21.286Z,4.6539
2019-04-28T04:52:26.808Z,4.6640
2019-04-28T04:53:31.877Z,4.6741
2019-04-28T04:54:37.017Z,4.6942
2019-04-28T04:55:43.034Z,4.7546
2019-04-28T04:56:50.135Z,4.8151
2019-04-28T04:57:55.835Z,4.8856
2019-04-28T04:59:02.733Z,4.9561
2019-04-28T05:00:10.053Z,5.0366
2019-04-28T05:01:15.220Z,5.1172
2019-04-28T05:02:29.364Z,5.2179
2019-04-28T05:03:31.791Z,5.2985
2019-04-28T05:04:36.796Z,5.3790
2019-04-28T05:05:41.787Z,5.4294
2019-04-28T05:06:46.800Z,5.5099
2019-04-28T05:07:51.869Z,5.5603
2019-04-28T05:08:56.204Z,5.6006
2019-04-28T05:10:01.826Z,5.6409
2019-04-28T05:11:06.864Z,5.6711
2019-04-28T05:12:12.257Z,5.6812
2019-04-28T05:13:17.875Z,5.7114
2019-04-28T05:14:23.955Z,5.7214
2019-04-28T05:15:30.411Z,5.7214
2019-04-28T05:16:35.852Z,5.7214
2019-04-28T05:17:40.320Z,5.7214
2019-04-28T05:18:45.920Z,5.7214
2019-04-28T05:19:51.949Z,5.6812
2019-04-28T05:20:57.227Z,5.6711
2019-04-28T05:22:02.201Z,5.6711
2019-04-28T05:23:09.588Z,5.6711
2019-04-28T05:24:15.959Z,5.6509
2019-04-28T05:25:24.585Z,5.6509
2019-04-28T05:26:34.082Z,5.6711
2019-04-28T05:27:40.026Z,5.6812
2019-04-28T05:28:51.410Z,5.7114
2019-04-28T05:29:56.822Z,5.6812
2019-04-28T05:31:05.892Z,5.6711
2019-04-28T05:32:10.968Z,5.6509
2019-04-28T05:33:17.120Z,5.6711
2019-04-28T05:34:24.102Z,5.6409
2019-04-28T05:35:29.464Z,5.6107
2019-04-28T05:36:40.941Z,5.6107
2019-04-28T05:37:45.275Z,5.6006
2019-04-28T05:38:50.826Z,5.5704
2019-04-28T05:39:55.804Z,5.5603
2019-04-28T05:41:02.820Z,5.5603
2019-04-28T05:42:09.706Z,5.5301
2019-04-28T05:43:16.984Z,5.4898
2019-04-28T05:44:22.853Z,5.4797
2019-04-28T05:45:27.918Z,5.4596
2019-04-28T05:46:33.878Z,5.4495
2019-04-28T05:47:40.793Z,5.4294
2019-04-28T05:48:49.483Z,5.4193
2019-04-28T05:49:56.796Z,5.3891
2019-04-28T05:51:01.924Z,5.3790
2019-04-28T05:52:06.288Z,5.3287
2019-04-28T05:53:11.848Z,5.3085
2019-04-28T05:54:16.828Z,5.2985
2019-04-28T05:55:21.477Z,5.2985
2019-04-28T05:56:26.853Z,5.2783
2019-04-28T05:57:31.919Z,5.2481
2019-04-28T05:58:40.097Z,5.2179
2019-04-28T05:59:45.208Z,5.1776
2019-04-28T06:00:50.856Z,5.1474
2019-04-28T06:01:55.799Z,5.1675
2019-04-28T06:03:00.931Z,5.1474
2019-04-28T06:04:06.374Z,5.1675
2019-04-28T06:05:12.199Z,5.1675
2019-04-28T06:06:17.908Z,5.1474
2019-04-28T06:07:23.884Z,5.1474
2019-04-28T06:08:30.347Z,5.1675
2019-04-28T06:09:35.819Z,5.1474
2019-04-28T06:10:40.940Z,5.1474
2019-04-28T06:11:45.214Z,5.1273
2019-04-28T06:12:50.859Z,5.1172
2019-04-28T06:13:55.845Z,5.1273
2019-04-28T06:15:00.840Z,5.1474
2019-04-28T06:16:05.223Z,5.1675
2019-04-28T06:17:10.980Z,5.1776
2019-04-28T06:18:15.206Z,5.1776
2019-04-28T06:19:20.783Z,5.1776
2019-04-28T06:20:25.853Z,5.1675
2019-04-28T06:21:30.866Z,5.1474
2019-04-28T06:22:35.864Z,5.0970
2019-04-28T06:23:41.169Z,5.0668
2019-04-28T06:24:46.307Z,5.0568
2019-04-28T06:25:51.934Z,5.0366
2019-04-28T06:26:57.167Z,5.0568
2019-04-28T06:28:02.846Z,5.0668
2019-04-28T06:29:07.854Z,5.0668
2019-04-28T06:30:12.213Z,5.0970
2019-04-28T06:31:18.190Z,5.1273
2019-04-28T06:32:23.235Z,5.1675
2019-04-28T06:33:28.778Z,5.1978
2019-04-28T06:34:33.758Z,5.2380
2019-04-28T06:35:38.832Z,5.2179
2019-04-28T06:36:43.952Z,5.2481
2019-04-28T06:37:49.875Z,5.2682
2019-04-28T06:38:54.217Z,5.2985
2019-04-28T06:39:59.904Z,5.3488
2019-04-28T06:41:05.895Z,5.3891
2019-04-28T06:42:10.908Z,5.4898
2019-04-28T06:43:15.940Z,5.5804
2019-04-28T06:44:21.235Z,5.6711
2019-04-28T06:45:26.896Z,5.7617
2019-04-28T06:46:32.951Z,5.8926
2019-04-28T06:47:38.944Z,5.9732
2019-04-28T06:48:44.820Z,6.0336
2019-04-28T06:49:49.207Z,6.0437
2019-04-28T06:50:55.233Z,6.0638
2019-04-28T06:52:00.850Z,6.0135
2019-04-28T06:53:06.554Z,5.9329
2019-04-28T06:54:11.746Z,5.8322
2019-04-28T06:55:16.917Z,5.7516
2019-04-28T06:56:22.790Z,5.6812
2019-04-28T06:57:27.860Z,5.6308
2019-04-28T06:58:32.255Z,5.6308
2019-04-28T06:59:37.253Z,5.6308
2019-04-28T07:00:42.852Z,5.6409
2019-04-28T07:01:47.792Z,5.6409
2019-04-28T07:02:52.938Z,5.6409
2019-04-28T07:03:58.854Z,5.6509
2019-04-28T07:05:03.907Z,5.6308
2019-04-28T07:06:09.877Z,5.5704
2019-04-28T07:07:20.213Z,5.5402
2019-04-28T07:08:25.225Z,5.4797
2019-04-28T07:09:31.582Z,5.4495
2019-04-28T07:10:36.827Z,5.3992
2019-04-28T07:11:42.061Z,5.3992
2019-04-28T07:12:47.839Z,5.3992
2019-04-28T07:13:52.207Z,5.4193
2019-04-28T07:14:57.900Z,5.4495
2019-04-28T07:16:03.246Z,5.4294
2019-04-28T07:17:08.874Z,5.4294
2019-04-28T07:18:14.155Z,5.4797
2019-04-28T07:19:20.673Z,5.5301
2019-04-28T07:20:25.891Z,5.5704
2019-04-28T07:21:30.857Z,5.6409
2019-04-28T07:22:35.471Z,5.7114
2019-04-28T07:23:40.856Z,5.7819
2019-04-28T07:24:45.765Z,5.8221
2019-04-28T07:25:50.898Z,5.8624
2019-04-28T07:26:56.196Z,5.9027
2019-04-28T07:28:01.809Z,5.9027
2019-04-28T07:29:06.831Z,5.8926
2019-04-28T07:30:11.226Z,5.9027
2019-04-28T07:31:16.874Z,5.9128
2019-04-28T07:32:21.998Z,5.9631
2019-04-28T07:33:35.766Z,5.9732
2019-04-28T07:34:37.833Z,5.9933
2019-04-28T07:35:42.228Z,5.9933
2019-04-28T07:36:47.889Z,5.9933
2019-04-28T07:37:54.119Z,5.9933
2019-04-28T07:38:58.868Z,5.9933
2019-04-28T07:40:03.916Z,5.9732
2019-04-28T07:41:09.862Z,5.9732
2019-04-28T07:42:14.826Z,5.9933
2019-04-28T07:43:18.683Z,6.0437
2019-04-28T07:44:23.229Z,6.1746
2019-04-28T07:45:28.209Z,6.3358
2019-04-28T07:46:33.227Z,6.5472
2019-04-28T07:47:38.827Z,6.7990
2019-04-28T07:48:43.920Z,7.0709
2019-04-28T07:49:49.221Z,7.3126
2019-04-28T07:50:54.814Z,7.5342
2019-04-28T07:51:59.888Z,7.7457
2019-04-28T07:53:05.838Z,7.9672
2019-04-28T07:54:11.051Z,8.1485
2019-04-28T07:55:16.884Z,8.3701
2019-04-28T07:56:22.849Z,8.6319
2019-04-28T07:57:28.050Z,8.9240
2019-04-28T07:58:34.235Z,9.2059
2019-04-28T07:59:39.864Z,9.5081
2019-04-28T08:00:45.390Z,9.7397
2019-04-28T08:01:51.566Z,9.8706
2019-04-28T08:02:56.245Z,9.9915
2019-04-28T08:04:03.057Z,10.0720
2019-04-28T08:05:08.778Z,10.0720
2019-04-28T08:06:13.826Z,9.9915
2019-04-28T08:07:18.829Z,9.8706
2019-04-28T08:08:23.822Z,9.7397
2019-04-28T08:09:28.489Z,9.6088
2019-04-28T08:10:33.836Z,9.5282
2019-04-28T08:11:38.877Z,9.4678
2019-04-28T08:12:43.740Z,9.3872
2019-04-28T08:13:48.867Z,9.2865
2019-04-28T08:14:54.919Z,9.1757
2019-04-28T08:16:00.802Z,9.0952
2019-04-28T08:17:05.919Z,9.1254
2019-04-28T08:18:11.201Z,9.3066
2019-04-28T08:19:17.162Z,9.6390
2019-04-28T08:20:22.849Z,10.1224
2019-04-28T08:21:27.212Z,10.4547
2019-04-28T08:22:32.883Z,10.7568
2019-04-28T08:23:47.079Z,11.6733
2019-04-28T08:24:49.845Z,13.0127
2019-04-28T08:25:54.837Z,14.1809
2019-04-28T08:27:00.367Z,15.1074
2019-04-28T08:28:05.856Z,15.5908
2019-04-28T08:29:10.947Z,16.0944
2019-04-28T08:30:16.786Z,16.4871
2019-04-28T08:31:21.895Z,16.2958
2019-04-28T08:32:27.834Z,15.8325
2019-04-28T08:33:33.989Z,15.3793
2019-04-28T08:34:39.885Z,15.5405
2019-04-28T08:35:45.776Z,16.1246
2019-04-28T08:36:50.819Z,16.7792
2019-04-28T08:37:55.214Z,17.1518
2019-04-28T08:39:00.224Z,17.3734
2019-04-28T08:40:05.885Z,17.4036
2019-04-28T08:41:11.237Z,17.2122
2019-04-28T08:42:16.232Z,17.4640
2019-04-28T08:43:22.064Z,17.9474
2019-04-28T08:44:27.850Z,18.4711
2019-04-28T08:45:32.862Z,19.0350
2019-04-28T08:46:37.208Z,19.4983
2019-04-28T08:47:42.885Z,19.7803
2019-04-28T08:48:48.898Z,19.5486
2019-04-28T08:49:54.049Z,18.8437
2019-04-28T08:51:00.005Z,18.0682
2019-04-28T08:52:06.076Z,17.8366
2019-04-28T08:53:13.974Z,18.2495
2019-04-28T08:54:19.886Z,18.8739
2019-04-28T08:55:24.241Z,19.4781
2019-04-28T08:56:28.259Z,20.0320
2019-04-28T08:57:33.843Z,20.5154
2019-04-28T08:58:38.762Z,20.8881
2019-04-28T08:59:43.882Z,21.3715
2019-04-28T09:00:49.231Z,21.8246
2019-04-28T09:01:54.931Z,21.7239
2019-04-28T09:03:00.241Z,21.6837
2019-04-28T09:04:15.194Z,21.8448
2019-04-28T09:05:15.831Z,22.3282
2019-04-28T09:06:21.230Z,22.8317
2019-04-28T09:07:26.860Z,23.2547
2019-04-28T09:08:32.510Z,23.5468
2019-04-28T09:09:37.836Z,24.0503
2019-04-28T09:10:43.865Z,24.3222
2019-04-28T09:11:49.176Z,23.9798
2019-04-28T09:12:54.222Z,23.4561
2019-04-28T09:14:00.208Z,22.7209
2019-04-28T09:15:05.223Z,21.8448
2019-04-28T09:16:10.789Z,21.0089
2019-04-28T09:17:15.900Z,20.2133
2019-04-28T09:18:21.766Z,19.4781
2019-04-28T09:19:26.925Z,18.8135
2019-04-28T09:20:32.163Z,18.2596
2019-04-28T09:21:36.231Z,17.7762
2019-04-28T09:22:41.903Z,17.4338
2019-04-28T09:23:47.237Z,17.1921
2019-04-28T09:24:52.961Z,17.0108
2019-04-28T09:25:58.833Z,16.8295
2019-04-28T09:27:03.969Z,16.9806
2019-04-28T09:28:09.811Z,17.7762
2019-04-28T09:29:14.829Z,18.6322
2019-04-28T09:30:19.892Z,19.1760
2019-04-28T09:31:23.913Z,19.1055
2019-04-28T09:32:29.212Z,18.7631
2019-04-28T09:33:34.796Z,18.5416
2019-04-28T09:34:39.223Z,18.8135
2019-04-28T09:35:44.779Z,19.2264
2019-04-28T09:36:49.971Z,19.6292
2019-04-28T09:38:31.725Z,19.8004
2019-04-28T09:39:36.825Z,19.4681
2019-04-28T09:40:40.224Z,19.0350
2019-04-28T09:41:45.493Z,18.5013
2019-04-28T09:42:50.226Z,17.9172
2019-04-28T09:43:55.899Z,17.2827
2019-04-28T09:45:01.861Z,16.6986
2019-04-28T09:46:06.854Z,16.1951
2019-04-28T09:47:17.772Z,15.7620
2019-04-28T09:48:22.934Z,15.4599
2019-04-28T09:49:28.832Z,15.3793
2019-04-28T09:50:33.854Z,15.6009
2019-04-28T09:51:53.396Z,16.0541
2019-04-28T09:52:57.681Z,16.8195
2019-04-28T09:54:02.850Z,17.6151
2019-04-28T09:55:07.228Z,18.1992
2019-04-28T09:56:12.994Z,18.5516
2019-04-28T09:57:18.765Z,18.8739
2019-04-28T09:58:23.805Z,19.0552
2019-04-28T09:59:29.821Z,19.0250
2019-04-28T10:00:35.013Z,18.9142
2019-04-28T10:01:40.873Z,18.7833
2019-04-28T10:02:46.864Z,18.6221
2019-04-28T10:03:51.823Z,18.4711
2019-04-28T10:04:57.790Z,18.3301
2019-04-28T10:06:02.936Z,18.1790
2019-04-28T10:07:08.228Z,18.0783
2019-04-28T10:08:13.889Z,18.0984
2019-04-28T10:09:18.903Z,18.3905
2019-04-28T10:10:24.756Z,18.8538
2019-04-28T10:11:30.844Z,19.1559
2019-04-28T10:12:36.217Z,19.4278
2019-04-28T10:13:41.996Z,19.9213
2019-04-28T10:14:47.875Z,20.5658
2019-04-28T10:15:52.829Z,21.0089
2019-04-28T10:16:57.825Z,21.3110
2019-04-28T10:18:08.766Z,21.6736
2019-04-28T10:19:13.905Z,22.2174
2019-04-28T10:20:19.214Z,22.7612
2019-04-28T10:21:24.850Z,23.2346
2019-04-28T10:22:51.971Z,23.6777
2019-04-28T10:23:57.207Z,24.0302
2019-04-28T10:25:03.211Z,23.9999
2019-04-28T10:26:08.764Z,23.9294
2019-04-28T10:27:13.811Z,23.8287
2019-04-28T10:28:24.771Z,23.6475
2019-04-28T10:29:32.799Z,23.4561
2019-04-28T10:30:38.900Z,23.3151
2019-04-28T10:31:45.420Z,23.4158
2019-04-28T10:32:57.861Z,23.5468
2019-04-28T10:34:02.873Z,23.6877
2019-04-28T10:35:08.344Z,23.6777
2019-04-28T10:36:13.938Z,23.4964
2019-04-28T10:37:19.795Z,23.0936
2019-04-28T10:38:24.778Z,22.6807
2019-04-28T10:39:35.770Z,22.3685
2019-04-28T10:40:40.873Z,22.1167
2019-04-28T10:41:46.102Z,21.9052
2019-04-28T10:42:52.051Z,21.6534
2019-04-28T10:43:57.796Z,21.4420
2019-04-28T10:45:08.769Z,21.1700
2019-04-28T10:46:13.853Z,20.8478
2019-04-28T10:47:18.835Z,20.5154
2019-04-28T10:48:23.771Z,20.2335
2019-04-28T10:49:28.866Z,19.9918
2019-04-28T10:50:34.184Z,19.7803
2019-04-28T10:51:39.849Z,19.5889
2019-04-28T10:52:44.225Z,19.4077
2019-04-28T10:53:50.429Z,19.2767
2019-04-28T10:54:58.774Z,19.2264
2019-04-28T10:56:03.941Z,19.2062
2019-04-28T10:57:09.859Z,19.2163
2019-04-28T10:58:14.960Z,19.3069
2019-04-28T10:59:20.221Z,19.3674
2019-04-28T11:00:26.160Z,19.4077
2019-04-28T11:01:31.979Z,19.4781
2019-04-28T11:02:38.588Z,19.4580
2019-04-28T11:03:43.819Z,19.4278
2019-04-28T11:04:48.989Z,19.4278
2019-04-28T11:05:55.184Z,19.4077
2019-04-28T11:07:00.889Z,19.3674
2019-04-28T11:08:06.564Z,19.3170
2019-04-28T11:09:11.900Z,19.2566
2019-04-28T11:10:17.228Z,19.1760
2019-04-28T11:11:22.906Z,19.0955
2019-04-28T11:12:28.836Z,18.9948
2019-04-28T11:13:33.200Z,18.8739
2019-04-28T11:14:56.865Z,18.7228
2019-04-28T11:16:01.808Z,18.5818
2019-04-28T11:17:06.896Z,18.5718
2019-04-28T11:18:12.856Z,18.6221
2019-04-28T11:19:17.902Z,18.7329
2019-04-28T11:20:25.255Z,18.8135
2019-04-28T11:21:31.398Z,18.9142
2019-04-28T11:22:36.756Z,18.9948
2019-04-28T11:23:41.237Z,19.0048
2019-04-28T11:24:46.883Z,19.0048
2019-04-28T11:25:50.836Z,18.9444
2019-04-28T11:26:55.214Z,18.8538
2019-04-28T11:28:00.774Z,18.7531
2019-04-28T11:29:05.913Z,18.5718
2019-04-28T11:30:10.757Z,18.4509
2019-04-28T11:31:15.871Z,18.3301
2019-04-28T11:32:20.893Z,18.2596
2019-04-28T11:33:26.993Z,18.1387
2019-04-28T11:34:32.921Z,18.0179
2019-04-28T11:35:38.218Z,17.8870
2019-04-28T11:36:43.940Z,17.7762
2019-04-28T11:37:49.808Z,17.7057
2019-04-28T11:38:54.870Z,17.6956
2019-04-28T11:39:59.833Z,17.7158
2019-04-28T11:41:04.674Z,17.7661
2019-04-28T11:42:10.339Z,17.7863
2019-04-28T11:43:15.226Z,17.7762
2019-04-28T11:44:20.214Z,17.7661
2019-04-28T11:45:26.356Z,17.7158
2019-04-28T11:46:31.792Z,17.6553
2019-04-28T11:47:36.827Z,17.5949
2019-04-28T11:48:41.866Z,17.5949
2019-04-28T11:49:46.235Z,17.6151
2019-04-28T11:50:51.875Z,17.6151
2019-04-28T11:51:56.913Z,17.6956
2019-04-28T11:53:02.817Z,17.7863
2019-04-28T11:54:07.903Z,18.0984
2019-04-28T11:55:13.519Z,18.5214
2019-04-28T11:56:18.991Z,19.1055
2019-04-28T11:57:24.895Z,19.6796
2019-04-28T11:58:31.266Z,20.2133
2019-04-28T11:59:37.115Z,20.7571
2019-04-28T12:00:44.979Z,21.1902
2019-04-28T12:01:50.647Z,21.5628
2019-04-28T12:02:55.307Z,21.8750
2019-04-28T12:04:01.406Z,22.0865
2019-04-28T12:05:06.887Z,22.2678
2019-04-28T12:06:12.851Z,22.4490
2019-04-28T12:07:17.810Z,22.6404
2019-04-28T12:08:23.122Z,22.8519
2019-04-28T12:09:29.093Z,22.9123
2019-04-28T12:10:34.952Z,22.7713
2019-04-28T12:11:40.909Z,22.4490
2019-04-28T12:12:47.166Z,22.0663
2019-04-28T12:13:52.880Z,21.8246
2019-04-28T12:14:57.933Z,21.6232
2019-04-28T12:16:03.828Z,21.6837
2019-04-28T12:17:08.294Z,21.8649
2019-04-28T12:18:14.942Z,22.1368
2019-04-28T12:19:20.955Z,22.3685
2019-04-28T12:20:27.204Z,22.6404
2019-04-28T12:21:32.822Z,22.7512
2019-04-28T12:22:37.779Z,22.8015
2019-04-28T12:23:42.400Z,22.8519
2019-04-28T12:24:47.936Z,22.8519
2019-04-28T12:25:53.909Z,22.8317
2019-04-28T12:26:59.832Z,22.7512
2019-04-28T12:28:04.849Z,22.5397
2019-04-28T12:29:10.234Z,22.2678
2019-04-28T12:30:15.913Z,21.9556
2019-04-28T12:31:22.836Z,21.7441
2019-04-28T12:32:27.846Z,21.7441
2019-04-28T12:33:32.981Z,21.7542
2019-04-28T12:34:38.879Z,21.7139
2019-04-28T12:35:48.084Z,21.5930
2019-04-28T12:36:53.284Z,21.3715
2019-04-28T12:37:58.772Z,20.9787
2019-04-28T12:39:03.772Z,20.5154
2019-04-28T12:40:09.202Z,20.0220
2019-04-28T12:41:14.808Z,19.5084
2019-04-28T12:42:20.129Z,18.9847
2019-04-28T12:43:26.115Z,18.5013
2019-04-28T12:44:31.202Z,18.0984
2019-04-28T12:45:36.915Z,17.7158
2019-04-28T12:46:42.992Z,17.3633
2019-04-28T12:47:49.164Z,17.0108
2019-04-28T12:48:55.155Z,16.6684
2019-04-28T12:50:00.958Z,16.3361
2019-04-28T12:51:09.930Z,16.0843
2019-04-28T12:52:15.818Z,15.8929
2019-04-28T12:53:20.850Z,15.7620
2019-04-28T12:54:25.235Z,15.7117
2019-04-28T12:55:30.849Z,15.7620
2019-04-28T12:56:37.031Z,16.0239
2019-04-28T12:57:43.014Z,16.4166
2019-04-28T12:58:48.824Z,16.7792
2019-04-28T12:59:53.290Z,17.0309
2019-04-28T13:00:58.903Z,17.2122
2019-04-28T13:02:04.847Z,17.3633
2019-04-28T13:03:09.443Z,17.5244
2019-04-28T13:04:17.851Z,17.6251
2019-04-28T13:05:22.842Z,17.7460
2019-04-28T13:06:27.798Z,17.8568
2019-04-28T13:07:32.846Z,17.9474
2019-04-28T13:08:37.853Z,17.9474
2019-04-28T13:09:42.873Z,17.9474
2019-04-28T13:10:48.320Z,18.0280
2019-04-28T13:11:53.249Z,18.1488
2019-04-28T13:12:58.849Z,18.2495
2019-04-28T13:14:04.817Z,18.2596
2019-04-28T13:15:09.783Z,18.2092
2019-04-28T13:16:14.806Z,18.1186
2019-04-28T13:17:19.221Z,18.0783
2019-04-28T13:18:24.868Z,18.0984
2019-04-28T13:19:30.945Z,18.0783
2019-04-28T13:20:36.793Z,18.1085
2019-04-28T13:21:42.115Z,18.1186
2019-04-28T13:22:47.218Z,18.1488
2019-04-28T13:23:52.982Z,18.1790
2019-04-28T13:24:58.989Z,18.1387
2019-04-28T13:26:04.798Z,18.1186
2019-04-28T13:27:10.322Z,18.2294
2019-04-28T13:28:15.745Z,18.3301
2019-04-28T13:29:20.194Z,18.4106
2019-04-28T13:30:26.303Z,18.5013
2019-04-28T13:31:32.118Z,18.6322